createdAt,value
2019-03-31T00:00:49.306Z,10.1
2019-03-31T00:01:49.194Z,10.1
2019-03-31T00:02:49.178Z,8.8
2019-03-31T00:03:49.173Z,8.6
2019-03-31T00:04:49.157Z,7.9
2019-03-31T00:05:49.150Z,7.4
2019-03-31T00:06:49.246Z,7.5
2019-03-31T00:07:49.138Z,8.6
2019-03-31T00:08:49.118Z,8.0
2019-03-31T00:09:49.108Z,8.1
2019-03-31T00:10:49.096Z,8.1
2019-03-31T00:11:49.084Z,7.6
2019-03-31T00:12:49.232Z,6.5
2019-03-31T00:13:49.067Z,7.9
2019-03-31T00:14:49.051Z,8.8
2019-03-31T00:15:49.044Z,8.6
2019-03-31T00:16:52.329Z,7.8
2019-03-31T00:17:49.026Z,8.8
2019-03-31T00:18:49.059Z,7.3
2019-03-31T00:19:49.002Z,7.0
2019-03-31T00:20:48.988Z,6.8
2019-03-31T00:21:49.046Z,7.4
2019-03-31T00:22:48.968Z,5.5
2019-03-31T00:23:48.962Z,2.7
2019-03-31T00:24:49.052Z,3.0
2019-03-31T00:25:48.949Z,3.0
2019-03-31T00:26:48.929Z,2.5
2019-03-31T00:27:48.915Z,2.9
2019-03-31T00:28:48.906Z,3.0
2019-03-31T00:29:48.893Z,3.9
2019-03-31T00:30:48.932Z,5.0
2019-03-31T00:31:48.884Z,4.0
2019-03-31T00:32:48.856Z,4.5
2019-03-31T00:33:48.851Z,4.6
2019-03-31T00:34:48.833Z,3.5
2019-03-31T00:35:48.824Z,3.7
2019-03-31T00:36:48.975Z,4.5
2019-03-31T00:37:48.806Z,4.5
2019-03-31T00:38:48.793Z,4.0
2019-03-31T00:39:48.787Z,5.8
2019-03-31T00:40:48.770Z,5.0
2019-03-31T00:41:48.763Z,4.0
2019-03-31T00:42:48.852Z,3.7
2019-03-31T00:43:48.738Z,3.9
2019-03-31T00:44:48.728Z,4.9
2019-03-31T00:45:48.723Z,4.8
2019-03-31T00:46:48.707Z,4.5
2019-03-31T00:47:48.695Z,5.8
2019-03-31T00:48:48.731Z,5.3
2019-03-31T00:49:48.674Z,6.3
2019-03-31T00:50:48.662Z,6.5
2019-03-31T00:51:48.653Z,4.3
2019-03-31T00:52:48.645Z,5.69
2019-03-31T00:53:48.680Z,5.19
2019-03-31T00:54:48.626Z,5.09
2019-03-31T00:55:48.616Z,4.69
2019-03-31T00:56:48.595Z,4.80
2019-03-31T00:57:48.594Z,4.00
2019-03-31T00:58:48.727Z,4.00
2019-03-31T00:59:48.572Z,6.30
2019-03-31T01:00:48.558Z,6.19
2019-03-31T01:01:48.550Z,6.30
2019-03-31T01:02:48.534Z,6.80
2019-03-31T01:03:48.524Z,6.59
2019-03-31T01:04:48.615Z,5.59
2019-03-31T01:05:48.503Z,6.00
2019-03-31T01:06:48.498Z,5.40
2019-03-31T01:07:48.482Z,5.19
2019-03-31T01:08:48.467Z,4.30
2019-03-31T01:09:48.461Z,2.20
2019-03-31T01:10:48.553Z,2.70
2019-03-31T01:11:48.443Z,3.50
2019-03-31T01:12:48.431Z,3.90
2019-03-31T01:13:48.412Z,4.40
2019-03-31T01:14:48.411Z,4.19
2019-03-31T01:15:48.440Z,3.90
2019-03-31T01:16:48.382Z,4.80
2019-03-31T01:17:48.371Z,4.80
2019-03-31T01:18:48.363Z,5.00
2019-03-31T01:19:48.353Z,5.50
2019-03-31T01:20:48.537Z,5.80
2019-03-31T01:21:48.336Z,5.00
2019-03-31T01:22:48.323Z,4.69
2019-03-31T01:23:48.314Z,4.19
2019-03-31T01:24:48.304Z,4.40
2019-03-31T01:25:48.290Z,4.30
2019-03-31T01:26:48.331Z,4.69
2019-03-31T01:27:48.266Z,4.09
2019-03-31T01:28:48.258Z,5.09
2019-03-31T01:29:48.244Z,3.50
2019-03-31T01:30:48.237Z,4.19
2019-03-31T01:31:50.608Z,3.40
2019-03-31T01:32:48.312Z,3.50
2019-03-31T01:33:48.201Z,4.00
2019-03-31T01:34:48.195Z,4.40
2019-03-31T01:35:48.182Z,4.69
2019-03-31T01:36:48.166Z,4.69
2019-03-31T01:37:48.155Z,3.20
2019-03-31T01:38:48.298Z,3.59
2019-03-31T01:39:48.133Z,3.29
2019-03-31T01:40:48.125Z,3.20
2019-03-31T01:41:48.113Z,4.59
2019-03-31T01:42:48.102Z,5.19
2019-03-31T01:43:48.093Z,5.30
2019-03-31T01:44:48.128Z,3.90
2019-03-31T01:45:48.072Z,4.80
2019-03-31T01:46:48.063Z,3.59
2019-03-31T01:47:48.054Z,3.70
2019-03-31T01:48:48.041Z,7.80
2019-03-31T01:49:48.033Z,8.50
2019-03-31T01:50:48.118Z,4.09
2019-03-31T01:51:48.011Z,3.09
2019-03-31T01:52:47.997Z,4.40
2019-03-31T01:53:47.985Z,6.19
2019-03-31T01:54:47.968Z,7.50
2019-03-31T01:55:47.961Z,5.00
2019-03-31T01:56:48.102Z,4.69
2019-03-31T01:57:47.941Z,4.00
2019-03-31T01:58:47.931Z,4.59
2019-03-31T01:59:47.919Z,4.90
2019-03-31T02:00:47.903Z,4.09
2019-03-31T02:01:47.897Z,5.50
2019-03-31T02:02:47.930Z,7.90
2019-03-31T02:03:47.871Z,6.00
2019-03-31T02:04:47.865Z,4.59
2019-03-31T02:05:47.851Z,7.30
2019-03-31T02:06:47.841Z,5.40
2019-03-31T02:07:47.827Z,8.39
2019-03-31T02:08:47.916Z,8.89
2019-03-31T02:09:47.805Z,9.10
2019-03-31T02:10:47.798Z,9.60
2019-03-31T02:11:47.787Z,11.00
2019-03-31T02:12:47.773Z,11.80
2019-03-31T02:13:47.918Z,11.39
2019-03-31T02:14:47.759Z,11.60
2019-03-31T02:15:47.738Z,13.69
2019-03-31T02:16:47.737Z,12.00
2019-03-31T02:17:47.717Z,10.00
2019-03-31T02:18:47.716Z,9.39
2019-03-31T02:19:47.750Z,11.00
2019-03-31T02:20:47.692Z,11.60
2019-03-31T02:21:47.675Z,14.19
2019-03-31T02:22:47.668Z,9.89
2019-03-31T02:23:47.655Z,7.90
2019-03-31T02:24:47.646Z,9.30
2019-03-31T02:25:47.687Z,9.00
2019-03-31T02:26:47.624Z,16.29
2019-03-31T02:27:47.669Z,19.20
2019-03-31T02:28:47.600Z,15.10
2019-03-31T02:29:47.590Z,13.50
2019-03-31T02:30:47.591Z,10.30
2019-03-31T02:31:47.776Z,8.69
2019-03-31T02:32:47.563Z,7.00
2019-03-31T02:33:47.543Z,8.30
2019-03-31T02:34:47.538Z,7.69
2019-03-31T02:35:47.550Z,8.00
2019-03-31T02:36:47.520Z,7.90
2019-03-31T02:37:47.604Z,7.59
2019-03-31T02:38:47.491Z,7.69
2019-03-31T02:39:47.483Z,7.50
2019-03-31T02:40:47.473Z,6.59
2019-03-31T02:41:47.473Z,6.40
2019-03-31T02:42:47.448Z,6.40
2019-03-31T02:43:47.483Z,7.40
2019-03-31T02:44:47.440Z,6.50
2019-03-31T02:45:47.416Z,6.90
2019-03-31T02:46:47.402Z,6.69
2019-03-31T02:47:47.392Z,5.80
2019-03-31T02:48:47.387Z,5.90
2019-03-31T02:49:47.520Z,5.19
2019-03-31T02:50:47.366Z,5.00
2019-03-31T02:51:47.350Z,5.40
2019-03-31T02:52:47.340Z,5.80
2019-03-31T02:53:47.325Z,6.30
2019-03-31T02:54:47.369Z,7.09
2019-03-31T02:55:47.303Z,6.00
2019-03-31T02:56:47.299Z,6.50
2019-03-31T02:57:47.293Z,7.50
2019-03-31T02:58:47.274Z,9.89
2019-03-31T02:59:47.267Z,7.59
2019-03-31T03:00:47.353Z,5.69
2019-03-31T03:01:47.244Z,5.69
2019-03-31T03:02:47.229Z,5.40
2019-03-31T03:03:47.232Z,6.09
2019-03-31T03:04:47.206Z,5.50
2019-03-31T03:05:47.199Z,5.30
2019-03-31T03:06:47.241Z,5.50
2019-03-31T03:07:47.176Z,5.59
2019-03-31T03:08:47.165Z,5.90
2019-03-31T03:09:47.154Z,5.59
2019-03-31T03:10:47.144Z,5.80
2019-03-31T03:11:47.281Z,5.69
2019-03-31T03:12:47.120Z,6.09
2019-03-31T03:13:47.109Z,5.40
2019-03-31T03:14:47.106Z,5.40
2019-03-31T03:15:47.091Z,5.50
2019-03-31T03:16:47.127Z,5.19
2019-03-31T03:17:47.069Z,4.90
2019-03-31T03:18:47.058Z,4.59
2019-03-31T03:19:47.042Z,6.09
2019-03-31T03:20:47.030Z,4.69
2019-03-31T03:21:47.073Z,4.80
2019-03-31T03:22:47.007Z,4.50
2019-03-31T03:23:46.998Z,4.19
2019-03-31T03:24:46.994Z,4.50
2019-03-31T03:25:55.754Z,4.80
2019-03-31T03:27:11.832Z,6.50
2019-03-31T03:28:11.821Z,6.09
2019-03-31T03:29:11.809Z,7.59
2019-03-31T03:30:11.799Z,6.90
2019-03-31T03:31:16.039Z,6.59
2019-03-31T03:32:11.918Z,5.09
2019-03-31T03:33:16.433Z,5.09
2019-03-31T03:34:36.633Z,5.00
2019-03-31T03:35:36.571Z,4.80
2019-03-31T03:36:36.568Z,5.90
2019-03-31T03:37:36.594Z,6.69
2019-03-31T03:38:36.533Z,5.50
2019-03-31T03:39:36.531Z,8.60
2019-03-31T03:40:36.514Z,10.19
2019-03-31T03:41:36.501Z,8.30
2019-03-31T03:42:36.495Z,7.50
2019-03-31T03:43:54.016Z,8.00
2019-03-31T03:45:01.285Z,8.80
2019-03-31T03:46:01.279Z,8.60
2019-03-31T03:47:01.262Z,7.59
2019-03-31T03:48:01.251Z,8.39
2019-03-31T03:49:01.439Z,7.50
2019-03-31T03:50:01.231Z,7.90
2019-03-31T03:51:01.227Z,7.50
2019-03-31T03:52:01.216Z,8.50
2019-03-31T03:53:01.201Z,8.19
2019-03-31T03:54:01.196Z,7.59
2019-03-31T03:55:01.273Z,8.19
2019-03-31T03:56:01.172Z,6.90
2019-03-31T03:57:01.161Z,7.90
2019-03-31T03:58:01.138Z,8.69
2019-03-31T03:59:01.140Z,10.39
2019-03-31T04:00:01.273Z,12.50
2019-03-31T04:01:01.140Z,13.60
2019-03-31T04:02:01.098Z,12.69
2019-03-31T04:03:01.101Z,12.89
2019-03-31T04:04:01.085Z,14.00
2019-03-31T04:05:01.132Z,15.39
2019-03-31T04:06:01.060Z,19.10
2019-03-31T04:07:01.048Z,20.20
2019-03-31T04:08:01.057Z,22.79
2019-03-31T04:09:01.053Z,24.39
2019-03-31T04:10:01.022Z,27.50
2019-03-31T04:11:01.056Z,29.89
2019-03-31T04:12:00.996Z,31.79
2019-03-31T04:13:00.986Z,33.20
2019-03-31T04:14:00.975Z,31.60
2019-03-31T04:15:00.964Z,31.89
2019-03-31T04:16:01.110Z,31.39
2019-03-31T04:17:00.945Z,31.29
2019-03-31T04:18:00.942Z,29.60
2019-03-31T04:19:01.030Z,29.20
2019-03-31T04:20:00.909Z,29.20
2019-03-31T04:21:00.953Z,28.10
2019-03-31T04:22:00.887Z,28.50
2019-03-31T04:23:00.887Z,28.10
2019-03-31T04:24:00.901Z,27.29
2019-03-31T04:25:00.864Z,29.29
2019-03-31T04:26:00.851Z,27.70
2019-03-31T04:27:00.944Z,27.79
2019-03-31T04:28:00.835Z,28.20
2019-03-31T04:29:00.815Z,27.29
2019-03-31T04:30:00.906Z,26.39
2019-03-31T04:31:00.796Z,24.39
2019-03-31T04:32:00.937Z,24.39
2019-03-31T04:33:00.783Z,23.79
2019-03-31T04:34:00.789Z,24.39
2019-03-31T04:35:00.778Z,23.50
2019-03-31T04:36:00.771Z,23.89
2019-03-31T04:37:00.781Z,23.10
2019-03-31T04:38:00.730Z,23.60
2019-03-31T04:39:01.019Z,22.60
2019-03-31T04:40:00.706Z,21.50
2019-03-31T04:41:00.693Z,21.10
2019-03-31T04:42:00.681Z,21.00
2019-03-31T04:43:00.767Z,21.20
2019-03-31T04:44:00.657Z,20.60
2019-03-31T04:45:00.654Z,19.89
2019-03-31T04:46:00.644Z,19.29
2019-03-31T04:47:00.627Z,18.50
2019-03-31T04:48:00.623Z,17.39
2019-03-31T04:49:00.657Z,17.79
2019-03-31T04:50:00.597Z,17.10
2019-03-31T04:51:00.587Z,16.00
2019-03-31T04:52:00.577Z,15.50
2019-03-31T04:53:00.568Z,17.29
2019-03-31T04:54:00.560Z,17.60
2019-03-31T04:55:00.603Z,18.20
2019-03-31T04:56:00.534Z,17.00
2019-03-31T04:57:00.524Z,15.19
2019-03-31T04:58:00.511Z,14.30
2019-03-31T04:59:00.504Z,12.60
2019-03-31T05:00:00.488Z,12.30
2019-03-31T05:01:00.580Z,12.19
2019-03-31T05:02:00.466Z,13.30
2019-03-31T05:03:00.460Z,13.69
2019-03-31T05:04:05.051Z,13.19
2019-03-31T05:05:00.491Z,12.89
2019-03-31T05:06:00.429Z,12.89
2019-03-31T05:07:00.470Z,13.10
2019-03-31T05:08:00.404Z,12.10
2019-03-31T05:09:00.393Z,12.80
2019-03-31T05:10:00.447Z,14.39
2019-03-31T05:11:00.377Z,14.00
2019-03-31T05:12:00.362Z,15.39
2019-03-31T05:13:00.506Z,17.10
2019-03-31T05:14:00.339Z,16.60
2019-03-31T05:15:00.329Z,17.10
2019-03-31T05:16:00.323Z,16.70
2019-03-31T05:17:00.377Z,17.39
2019-03-31T05:18:00.299Z,16.89
2019-03-31T05:19:00.336Z,16.79
2019-03-31T05:20:00.492Z,14.89
2019-03-31T05:21:00.300Z,12.89
2019-03-31T05:22:00.270Z,13.50
2019-03-31T05:23:00.250Z,14.00
2019-03-31T05:24:00.239Z,14.10
2019-03-31T05:25:00.399Z,12.39
2019-03-31T05:26:00.214Z,10.69
2019-03-31T05:27:00.207Z,10.10
2019-03-31T05:28:00.198Z,8.19
2019-03-31T05:29:00.270Z,8.50
2019-03-31T05:30:00.558Z,8.89
2019-03-31T05:31:00.163Z,8.19
2019-03-31T05:32:00.155Z,6.59
2019-03-31T05:33:00.137Z,5.90
2019-03-31T05:34:00.129Z,4.90
2019-03-31T05:35:00.348Z,4.40
2019-03-31T05:36:00.111Z,4.19
2019-03-31T05:37:00.104Z,4.59
2019-03-31T05:38:00.091Z,5.00
2019-03-31T05:39:00.078Z,7.50
2019-03-31T05:40:00.262Z,8.10
2019-03-31T05:41:00.108Z,8.30
2019-03-31T05:42:00.042Z,8.89
2019-03-31T05:43:00.035Z,9.39
2019-03-31T05:44:05.875Z,9.39
2019-03-31T05:45:24.831Z,7.90
2019-03-31T05:46:24.917Z,8.10
2019-03-31T05:47:24.805Z,8.89
2019-03-31T05:48:24.796Z,8.89
2019-03-31T05:49:24.782Z,9.30
2019-03-31T05:50:24.774Z,9.10
2019-03-31T05:51:24.960Z,10.10
2019-03-31T05:52:24.752Z,9.30
2019-03-31T05:53:24.742Z,10.69
2019-03-31T05:54:24.736Z,9.60
2019-03-31T05:55:24.718Z,10.60
2019-03-31T05:56:24.709Z,8.50
2019-03-31T05:57:24.752Z,9.89
2019-03-31T05:58:24.689Z,10.10
2019-03-31T05:59:24.681Z,11.30
2019-03-31T06:00:24.670Z,14.39
2019-03-31T06:01:24.654Z,15.39
2019-03-31T06:02:24.693Z,13.00
2019-03-31T06:03:24.642Z,12.00
2019-03-31T06:04:32.947Z,13.50
2019-03-31T06:05:25.712Z,13.30
2019-03-31T06:06:24.604Z,11.39
2019-03-31T06:07:24.745Z,12.00
2019-03-31T06:08:24.587Z,12.69
2019-03-31T06:09:24.575Z,13.60
2019-03-31T06:10:24.560Z,12.80
2019-03-31T06:11:24.553Z,12.60
2019-03-31T06:12:24.648Z,11.60
2019-03-31T06:13:24.530Z,11.30
2019-03-31T06:14:24.520Z,11.30
2019-03-31T06:15:24.514Z,11.89
2019-03-31T06:16:24.497Z,11.00
2019-03-31T06:17:24.540Z,11.19
2019-03-31T06:18:24.476Z,11.60
2019-03-31T06:19:24.466Z,10.89
2019-03-31T06:20:24.459Z,11.39
2019-03-31T06:21:24.445Z,11.60
2019-03-31T06:22:24.437Z,11.69
2019-03-31T06:23:24.576Z,10.60
2019-03-31T06:24:24.422Z,10.69
2019-03-31T06:25:24.410Z,11.39
2019-03-31T06:26:24.393Z,11.50
2019-03-31T06:27:24.381Z,10.60
2019-03-31T06:28:24.379Z,11.10
2019-03-31T06:29:24.440Z,11.39
2019-03-31T06:30:24.353Z,11.00
2019-03-31T06:31:24.344Z,11.10
2019-03-31T06:32:24.332Z,11.19
2019-03-31T06:33:24.323Z,10.69
2019-03-31T06:34:24.341Z,10.19
2019-03-31T06:35:24.399Z,9.69
2019-03-31T06:36:24.290Z,9.50
2019-03-31T06:37:24.279Z,8.39
2019-03-31T06:38:24.273Z,8.60
2019-03-31T06:39:24.260Z,8.30
2019-03-31T06:40:24.249Z,8.00
2019-03-31T06:41:24.419Z,7.80
2019-03-31T06:42:24.226Z,7.90
2019-03-31T06:43:24.217Z,7.69
2019-03-31T06:44:24.207Z,8.30
2019-03-31T06:45:24.197Z,7.90
2019-03-31T06:46:24.197Z,7.69
2019-03-31T06:47:24.224Z,8.19
2019-03-31T06:48:24.166Z,8.19
2019-03-31T06:49:24.156Z,9.10
2019-03-31T06:50:24.141Z,9.39
2019-03-31T06:51:24.131Z,9.60
2019-03-31T06:52:24.119Z,9.89
2019-03-31T06:53:24.218Z,10.00
2019-03-31T06:54:24.105Z,9.89
2019-03-31T06:55:24.087Z,10.10
2019-03-31T06:56:24.081Z,9.19
2019-03-31T06:57:24.069Z,9.69
2019-03-31T06:58:24.059Z,9.19
2019-03-31T06:59:24.110Z,9.39
2019-03-31T07:00:24.044Z,8.89
2019-03-31T07:01:24.027Z,8.60
2019-03-31T07:02:24.017Z,7.59
2019-03-31T07:03:24.008Z,7.90
2019-03-31T07:04:24.145Z,7.80
2019-03-31T07:05:23.989Z,7.59
2019-03-31T07:06:23.976Z,6.69
2019-03-31T07:07:24.146Z,6.69
2019-03-31T07:08:23.958Z,6.09
2019-03-31T07:09:23.993Z,6.09
2019-03-31T07:10:23.930Z,6.40
2019-03-31T07:11:23.921Z,5.90
2019-03-31T07:12:23.908Z,5.69
2019-03-31T07:13:23.901Z,5.50
2019-03-31T07:14:23.891Z,6.19
2019-03-31T07:15:23.931Z,5.59
2019-03-31T07:16:23.867Z,5.40
2019-03-31T07:17:23.856Z,5.59
2019-03-31T07:18:23.852Z,5.30
2019-03-31T07:19:23.833Z,5.40
2019-03-31T07:20:23.825Z,5.50
2019-03-31T07:21:24.017Z,5.50
2019-03-31T07:22:24.477Z,5.40
2019-03-31T07:23:23.797Z,5.19
2019-03-31T07:24:23.786Z,5.59
2019-03-31T07:25:23.772Z,5.50
2019-03-31T07:26:23.767Z,5.40
2019-03-31T07:27:23.943Z,5.30
2019-03-31T07:28:23.743Z,5.50
2019-03-31T07:29:23.738Z,15.00
2019-03-31T07:30:23.720Z,6.90
2019-03-31T07:31:23.715Z,7.19
2019-03-31T07:32:23.750Z,5.90
2019-03-31T07:33:23.688Z,5.30
2019-03-31T07:34:23.674Z,5.40
2019-03-31T07:35:23.673Z,5.69
2019-03-31T07:36:23.731Z,5.59
2019-03-31T07:37:23.846Z,6.30
2019-03-31T07:38:23.689Z,6.40
2019-03-31T07:39:23.821Z,6.40
2019-03-31T07:40:23.656Z,6.40
2019-03-31T07:41:23.919Z,6.30
2019-03-31T07:42:23.652Z,6.90
2019-03-31T07:43:23.631Z,6.90
2019-03-31T07:44:23.566Z,7.09
2019-03-31T07:45:23.558Z,6.80
2019-03-31T07:46:23.552Z,6.80
2019-03-31T07:47:23.537Z,6.80
2019-03-31T07:48:23.577Z,6.80
2019-03-31T07:49:23.512Z,6.30
2019-03-31T07:50:23.505Z,6.00
2019-03-31T07:51:23.508Z,5.90
2019-03-31T07:52:23.487Z,6.50
2019-03-31T07:53:23.478Z,9.19
2019-03-31T07:54:23.565Z,8.60
2019-03-31T07:55:23.451Z,11.19
2019-03-31T07:56:23.438Z,10.60
2019-03-31T07:57:23.435Z,9.30
2019-03-31T07:58:23.447Z,9.69
2019-03-31T07:59:23.447Z,10.39
2019-03-31T08:00:23.555Z,10.19
2019-03-31T08:01:23.386Z,8.39
2019-03-31T08:02:23.374Z,9.19
2019-03-31T08:03:23.365Z,8.30
2019-03-31T08:04:23.357Z,9.69
2019-03-31T08:05:33.160Z,7.50
2019-03-31T08:06:48.190Z,6.00
2019-03-31T08:07:48.183Z,6.19
2019-03-31T08:08:48.168Z,6.59
2019-03-31T08:09:48.164Z,5.50
2019-03-31T08:10:48.150Z,4.30
2019-03-31T08:11:48.247Z,4.19
2019-03-31T08:12:48.128Z,6.09
2019-03-31T08:13:48.121Z,6.40
2019-03-31T08:14:48.110Z,5.50
2019-03-31T08:15:48.097Z,6.00
2019-03-31T08:16:48.090Z,4.80
2019-03-31T08:17:48.234Z,4.80
2019-03-31T08:18:48.065Z,4.40
2019-03-31T08:19:48.057Z,4.09
2019-03-31T08:20:48.045Z,4.40
2019-03-31T08:21:48.031Z,4.09
2019-03-31T08:22:48.025Z,4.69
2019-03-31T08:23:48.117Z,4.00
2019-03-31T08:24:48.002Z,4.00
2019-03-31T08:25:48.016Z,4.30
2019-03-31T08:26:47.980Z,2.70
2019-03-31T08:27:47.973Z,3.20
2019-03-31T08:28:48.010Z,3.00
2019-03-31T08:29:55.660Z,3.09
2019-03-31T08:31:12.749Z,2.90
2019-03-31T08:32:12.738Z,2.79
2019-03-31T08:33:12.728Z,3.09
2019-03-31T08:34:12.767Z,3.70
2019-03-31T08:35:12.707Z,3.90
2019-03-31T08:36:12.692Z,3.50
2019-03-31T08:37:12.685Z,3.20
2019-03-31T08:38:12.682Z,3.29
2019-03-31T08:39:12.861Z,3.50
2019-03-31T08:40:12.698Z,3.79
2019-03-31T08:41:12.714Z,3.90
2019-03-31T08:42:12.634Z,3.00
2019-03-31T08:43:12.624Z,1.79
2019-03-31T08:44:12.611Z,1.29
2019-03-31T08:45:12.661Z,2.40
2019-03-31T08:46:12.587Z,1.79
2019-03-31T08:47:12.577Z,1.50
2019-03-31T08:48:12.567Z,1.70
2019-03-31T08:49:12.562Z,2.00
2019-03-31T08:50:12.548Z,2.00
2019-03-31T08:51:12.587Z,2.29
2019-03-31T08:52:12.523Z,1.79
2019-03-31T08:53:12.513Z,1.90
2019-03-31T08:54:12.508Z,1.90
2019-03-31T08:55:12.496Z,2.20
2019-03-31T08:56:12.489Z,1.90
2019-03-31T08:57:12.728Z,2.09
2019-03-31T08:58:12.464Z,2.20
2019-03-31T08:59:12.454Z,2.20
2019-03-31T09:00:12.443Z,2.70
2019-03-31T09:01:12.426Z,2.00
2019-03-31T09:02:12.522Z,2.40
2019-03-31T09:03:12.415Z,1.90
2019-03-31T09:04:12.402Z,2.00
2019-03-31T09:05:12.392Z,1.79
2019-03-31T09:06:12.383Z,2.00
2019-03-31T09:07:12.371Z,2.40
2019-03-31T09:08:12.461Z,2.40
2019-03-31T09:09:12.346Z,2.79
2019-03-31T09:10:12.330Z,2.79
2019-03-31T09:11:12.328Z,2.59
2019-03-31T09:12:12.313Z,2.20
2019-03-31T09:13:12.350Z,2.29
2019-03-31T09:14:12.294Z,2.20
2019-03-31T09:15:12.283Z,2.40
2019-03-31T09:16:12.268Z,2.40
2019-03-31T09:17:12.253Z,2.40
2019-03-31T09:18:12.499Z,2.70
2019-03-31T09:19:12.237Z,2.20
2019-03-31T09:20:12.228Z,2.09
2019-03-31T09:21:12.217Z,2.09
2019-03-31T09:22:12.209Z,2.09
2019-03-31T09:23:12.197Z,2.40
2019-03-31T09:24:12.236Z,2.20
2019-03-31T09:25:12.172Z,2.59
2019-03-31T09:26:12.163Z,2.00
2019-03-31T09:27:12.153Z,2.59
2019-03-31T09:28:12.139Z,2.20
2019-03-31T09:29:12.129Z,2.70
2019-03-31T09:30:12.216Z,3.09
2019-03-31T09:31:12.109Z,2.90
2019-03-31T09:32:12.095Z,2.90
2019-03-31T09:33:12.087Z,2.70
2019-03-31T09:34:12.075Z,2.50
2019-03-31T09:35:12.070Z,1.90
2019-03-31T09:36:16.307Z,2.50
2019-03-31T09:37:12.045Z,1.60
2019-03-31T09:38:12.031Z,1.90
2019-03-31T09:39:12.018Z,1.60
2019-03-31T09:40:12.011Z,1.50
2019-03-31T09:41:12.002Z,2.50
2019-03-31T09:42:12.096Z,1.90
2019-03-31T09:43:11.980Z,2.40
2019-03-31T09:44:11.967Z,2.20
2019-03-31T09:45:11.957Z,1.29
2019-03-31T09:46:11.946Z,1.70
2019-03-31T09:47:11.995Z,1.90
2019-03-31T09:48:11.922Z,2.70
2019-03-31T09:49:11.918Z,2.09
2019-03-31T09:50:11.903Z,2.20
2019-03-31T09:51:11.893Z,2.00
2019-03-31T09:52:12.033Z,1.79
2019-03-31T09:53:11.872Z,1.90
2019-03-31T09:54:11.863Z,1.79
2019-03-31T09:55:11.846Z,2.09
2019-03-31T09:56:15.096Z,2.29
2019-03-31T09:57:11.824Z,2.90
2019-03-31T09:58:11.923Z,2.90
2019-03-31T09:59:11.804Z,3.09
2019-03-31T10:00:11.800Z,3.20
2019-03-31T10:01:11.780Z,3.40
2019-03-31T10:02:11.775Z,3.50
2019-03-31T10:03:11.760Z,3.09
2019-03-31T10:04:11.802Z,3.29
2019-03-31T10:05:11.740Z,3.20
2019-03-31T10:06:11.731Z,3.40
2019-03-31T10:07:11.719Z,3.40
2019-03-31T10:08:11.709Z,3.50
2019-03-31T10:09:11.693Z,3.59
2019-03-31T10:10:11.885Z,3.29
2019-03-31T10:11:11.677Z,3.29
2019-03-31T10:12:11.664Z,3.20
2019-03-31T10:13:11.655Z,3.29
2019-03-31T10:14:11.643Z,3.59
2019-03-31T10:15:11.628Z,3.29
2019-03-31T10:16:11.723Z,3.29
2019-03-31T10:17:11.613Z,3.40
2019-03-31T10:18:11.603Z,3.79
2019-03-31T10:19:11.590Z,3.90
2019-03-31T10:20:11.579Z,4.09
2019-03-31T10:21:11.566Z,3.79
2019-03-31T10:22:11.609Z,3.90
2019-03-31T10:23:11.551Z,4.40
2019-03-31T10:24:11.537Z,4.80
2019-03-31T10:25:13.348Z,4.80
2019-03-31T10:26:11.516Z,4.69
2019-03-31T10:27:11.517Z,4.80
2019-03-31T10:28:11.596Z,5.09
2019-03-31T10:29:11.490Z,5.40
2019-03-31T10:30:11.477Z,5.40
2019-03-31T10:31:11.462Z,5.30
2019-03-31T10:32:11.463Z,6.40
2019-03-31T10:33:11.697Z,6.19
2019-03-31T10:34:11.430Z,6.00
2019-03-31T10:35:11.419Z,5.90
2019-03-31T10:36:12.903Z,6.69
2019-03-31T10:37:11.410Z,6.69
2019-03-31T10:38:11.395Z,6.90
2019-03-31T10:39:11.482Z,6.80
2019-03-31T10:40:11.370Z,6.69
2019-03-31T10:41:11.365Z,6.80
2019-03-31T10:42:11.351Z,6.50
2019-03-31T10:43:11.340Z,6.19
2019-03-31T10:44:11.429Z,5.80
2019-03-31T10:45:11.320Z,6.30
2019-03-31T10:46:11.308Z,5.90
2019-03-31T10:47:11.292Z,5.90
2019-03-31T10:48:20.480Z,6.30
2019-03-31T10:49:36.144Z,7.00
2019-03-31T10:50:36.133Z,6.90
2019-03-31T10:51:36.115Z,6.30
2019-03-31T10:52:36.110Z,6.40
2019-03-31T10:53:36.097Z,6.90
2019-03-31T10:54:36.338Z,6.80
2019-03-31T10:55:36.082Z,6.00
2019-03-31T10:56:36.071Z,7.09
2019-03-31T10:57:36.055Z,7.00
2019-03-31T10:58:36.042Z,7.40
2019-03-31T10:59:36.036Z,7.59
2019-03-31T11:00:36.079Z,7.50
2019-03-31T11:01:36.011Z,7.40
2019-03-31T11:02:36.003Z,7.00
2019-03-31T11:03:35.991Z,7.19
2019-03-31T11:04:35.981Z,7.69
2019-03-31T11:05:35.981Z,8.19
2019-03-31T11:06:36.070Z,7.30
2019-03-31T11:07:35.956Z,7.09
2019-03-31T11:08:35.939Z,7.30
2019-03-31T11:09:35.941Z,7.19
2019-03-31T11:10:35.918Z,7.30
2019-03-31T11:11:35.909Z,7.09
2019-03-31T11:12:36.047Z,7.40
2019-03-31T11:13:35.888Z,6.69
2019-03-31T11:14:35.887Z,7.80
2019-03-31T11:15:35.866Z,7.80
2019-03-31T11:16:35.853Z,7.40
2019-03-31T11:17:35.841Z,7.40
2019-03-31T11:18:35.942Z,7.69
2019-03-31T11:19:35.824Z,8.30
2019-03-31T11:20:35.811Z,7.30
2019-03-31T11:21:35.807Z,7.30
2019-03-31T11:22:35.787Z,7.50
2019-03-31T11:23:35.831Z,7.59
2019-03-31T11:24:35.767Z,7.50
2019-03-31T11:25:35.760Z,7.30
2019-03-31T11:26:35.747Z,7.00
2019-03-31T11:27:35.734Z,6.90
2019-03-31T11:28:35.776Z,6.50
2019-03-31T11:29:35.717Z,4.90
2019-03-31T11:30:35.707Z,5.50
2019-03-31T11:31:35.694Z,5.50
2019-03-31T11:32:35.685Z,5.09
2019-03-31T11:33:35.672Z,5.80
2019-03-31T11:34:35.865Z,5.69
2019-03-31T11:35:35.650Z,5.50
2019-03-31T11:36:35.643Z,5.69
2019-03-31T11:37:35.633Z,5.40
2019-03-31T11:38:35.625Z,5.69
2019-03-31T11:39:35.614Z,6.40
2019-03-31T11:40:35.702Z,6.40
2019-03-31T11:41:35.591Z,6.09
2019-03-31T11:42:35.577Z,6.19
2019-03-31T11:43:35.570Z,6.30
2019-03-31T11:44:35.561Z,5.30
2019-03-31T11:45:35.550Z,5.59
2019-03-31T11:46:35.634Z,5.59
2019-03-31T11:47:35.523Z,6.09
2019-03-31T11:48:35.518Z,5.69
2019-03-31T11:49:35.507Z,5.59
2019-03-31T11:50:35.499Z,5.19
2019-03-31T11:51:35.589Z,8.60
2019-03-31T11:52:35.474Z,10.10
2019-03-31T11:53:35.461Z,5.30
2019-03-31T11:54:35.450Z,5.19
2019-03-31T11:55:35.453Z,5.30
2019-03-31T11:56:35.431Z,5.19
2019-03-31T11:57:35.517Z,5.00
2019-03-31T11:58:35.411Z,5.30
2019-03-31T11:59:35.402Z,4.50
2019-03-31T12:00:35.388Z,4.30
2019-03-31T12:01:35.382Z,4.69
2019-03-31T12:02:35.570Z,4.80
2019-03-31T12:03:35.360Z,4.69
2019-03-31T12:04:35.352Z,4.69
2019-03-31T12:05:35.336Z,4.90
2019-03-31T12:06:35.327Z,5.40
2019-03-31T12:07:45.994Z,5.19
2019-03-31T12:09:00.169Z,4.90
2019-03-31T12:10:00.456Z,4.80
2019-03-31T12:11:00.148Z,5.19
2019-03-31T12:12:00.140Z,5.00
2019-03-31T12:13:00.127Z,5.40
2019-03-31T12:14:00.166Z,5.09
2019-03-31T12:15:01.305Z,4.80
2019-03-31T12:16:00.096Z,6.00
2019-03-31T12:17:00.090Z,7.40
2019-03-31T12:18:00.077Z,8.80
2019-03-31T12:19:00.073Z,8.19
2019-03-31T12:20:00.369Z,4.50
2019-03-31T12:21:00.043Z,4.09
2019-03-31T12:22:00.034Z,4.09
2019-03-31T12:23:00.018Z,3.59
2019-03-31T12:24:00.013Z,3.59
2019-03-31T12:25:00.001Z,4.30
2019-03-31T12:26:00.091Z,4.19
2019-03-31T12:26:59.983Z,4.90
2019-03-31T12:27:59.970Z,5.40
2019-03-31T12:28:59.958Z,5.40
2019-03-31T12:29:59.957Z,5.90
2019-03-31T12:31:00.145Z,5.40
2019-03-31T12:31:59.924Z,6.00
2019-03-31T12:32:59.922Z,5.50
2019-03-31T12:33:59.907Z,5.59
2019-03-31T12:34:59.898Z,5.50
2019-03-31T12:35:59.883Z,5.19
2019-03-31T12:36:59.924Z,5.59
2019-03-31T12:37:59.863Z,5.50
2019-03-31T12:38:59.850Z,5.19
2019-03-31T12:39:59.855Z,5.19
2019-03-31T12:40:59.840Z,5.59
2019-03-31T12:41:59.816Z,6.19
2019-03-31T12:42:59.906Z,14.10
2019-03-31T12:43:59.798Z,12.39
2019-03-31T12:44:59.791Z,5.40
2019-03-31T12:45:59.774Z,5.30
2019-03-31T12:46:59.767Z,5.19
2019-03-31T12:48:01.428Z,5.40
2019-03-31T12:48:59.996Z,4.90
2019-03-31T12:49:59.739Z,5.40
2019-03-31T12:50:59.723Z,4.90
2019-03-31T12:51:59.716Z,4.90
2019-03-31T12:52:59.707Z,5.69
2019-03-31T12:53:59.700Z,6.30
2019-03-31T12:54:59.794Z,8.69
2019-03-31T12:56:00.697Z,8.19
2019-03-31T12:56:59.657Z,5.69
2019-03-31T12:57:59.655Z,5.19
2019-03-31T12:58:59.635Z,4.90
2019-03-31T12:59:59.626Z,7.09
2019-03-31T13:00:59.766Z,5.30
2019-03-31T13:01:59.611Z,5.19
2019-03-31T13:02:59.596Z,5.19
2019-03-31T13:03:59.586Z,5.19
2019-03-31T13:04:59.576Z,5.50
2019-03-31T13:05:59.560Z,5.09
2019-03-31T13:06:59.708Z,5.69
2019-03-31T13:07:59.545Z,5.19
2019-03-31T13:08:59.530Z,10.19
2019-03-31T13:09:59.522Z,6.80
2019-03-31T13:10:59.506Z,16.89
2019-03-31T13:11:59.604Z,5.00
2019-03-31T13:12:59.489Z,5.69
2019-03-31T13:13:59.480Z,5.80
2019-03-31T13:14:59.464Z,9.30
2019-03-31T13:15:59.454Z,8.10
2019-03-31T13:17:01.504Z,16.89
2019-03-31T13:17:59.491Z,7.19